Главная страница
METAR-TAF:

METAR-TAF

Аэропорты :

Orange County Airport

Монтгомери, Нью-Йорк, США

широта: 41-30-33N, долгота: 074-15-54W, высота над уровнем моря: 111 м

Текущие метеонаблюдения

Эта сводка был подготовлена 17 минут назад, в 10:54 UTC
Ветер 12 Узел от западно-северо-западный с порывами до 22 Узел
Температура -1°C
Влажность 64%
Давление 1005 hPa
Видимость: 16.1 км
Сплошная облачность на высоте 3300 фута

METAR: KMGJ 231054Z AUTO 29012G22KT 10SM OVC033 M01/M07 A2969 RMK AO2 PK WND 28027/1032 SLP058 T10111072

Время: 07:11 (11:11 UTC)


TAF: отсутствует

Метеонаблюдения и прогнозы для более 4000 аэропортов (сводки METAR и TAF).

Имеющиеся станции представлены на карте желтыми и красными точками.

Чтобы увидеть название станции, наведите на нее мышь.

Затем щелкните, чтобы увидеть метеонаблюдения и метеопрогнозы.

Управление картой: чтобы увеличить масштаб, щелкните зеленые кнопки с черным крестиком; чтобы уменьшить масштаб, щелкните зеленую кнопку с тире; для просмотра соседних карт щелкайте зеленые стрелки.


METAR-TAF: